Millstone, West Virginia
Current Conditions -  °F | °C
As of 2:54 PM on Friday 21 Nov 2014 (Local Time) from KCRW Reporting Station
Clear Clear  
Wind Chill: -1°   Ceiling: Unl
Heat Index:   Visibility: 10mi
Dew Point: -14°   Wind: 8mph
Humidity: 29%   Direction: 250°WSW
Pressure: 30.48"   Gusts: NA
Location:  38.8°N, 81.1°W
Report Text: KCRW 211954Z 25007KT 10SM CLR 02/M14 A3048 RMK AO2 SLP331 T00221144
Loading
Personal Weather Stations






























Interactive Weather Map New forecast layout! Learn more

10-Day Weather Forecast

Advertisements
Track Severe Weather on mobile